Time;durP1;ratioP1;P1;durP2;ratioP2;P2;SDS_P1;SDS_P2;PMS_P1;PMS_P2;Temp;Humidity;BMP_temperature;BMP_pressure;BME280_temperature;BME280_humidity;BME280_pressure;Samples;Min_cycle;Max_cycle;Signal;HPM_P1;HPM_P2
2023/09/02 00:00:45;;;;;;;1.80;1.70;;;;;;;15.45;100.00;98829.41;15272893;19;20014;-44
2023/09/02 00:06:13;;;;;;;2.63;1.90;;;;;;;15.40;100.00;98822.63;15266907;19;20129;-46
2023/09/02 00:11:39;;;;;;;1.83;1.52;;;;;;;15.37;100.00;98809.41;15271059;19;20046;-47
2023/09/02 00:17:04;;;;;;;2.08;1.67;;;;;;;15.33;100.00;98812.69;15275546;19;20026;-44
2023/09/02 00:22:32;;;;;;;1.70;1.60;;;;;;;15.28;100.00;98813.25;15264228;19;20038;-48
2023/09/02 00:27:57;;;;;;;2.55;1.80;;;;;;;15.23;100.00;98805.66;15274547;19;20025;-45
2023/09/02 00:33:21;;;;;;;1.75;1.50;;;;;;;15.19;100.00;98814.34;15275301;19;20010;-45
2023/09/02 00:38:50;;;;;;;1.40;1.30;;;;;;;15.10;100.00;98810.84;15267535;19;20535;-43
2023/09/02 00:44:16;;;;;;;20.83;2.20;;;;;;;15.05;100.00;98807.84;15164715;19;2005761;-45
2023/09/02 00:49:41;;;;;;;19.20;2.83;;;;;;;14.97;100.00;98816.00;15272217;19;20022;-46
2023/09/02 00:55:08;;;;;;;26.30;5.38;;;;;;;14.90;100.00;98805.88;15264781;19;20468;-45
2023/09/02 01:00:40;;;;;;;2.70;2.50;;;;;;;14.85;100.00;98805.56;15271311;19;20018;-44
2023/09/02 01:06:07;;;;;;;601.45;15.02;;;;;;;14.85;100.00;98837.28;15268650;19;20022;-46
2023/09/02 01:11:35;;;;;;;206.63;6.85;;;;;;;14.85;100.00;98842.72;15269569;19;20094;-48
2023/09/02 01:17:01;;;;;;;877.05;17.42;;;;;;;14.79;100.00;98841.56;15269806;19;20843;-44
2023/09/02 01:22:42;;;;;;;863.58;18.52;;;;;;;14.75;100.00;98860.06;15267582;19;20027;-45
2023/09/02 01:28:14;;;;;;;999.88;18.55;;;;;;;14.70;100.00;98853.50;15265022;19;20463;-43
2023/09/02 01:33:40;;;;;;;916.63;19.02;;;;;;;14.68;100.00;98872.63;15267608;19;20010;-43
2023/09/02 01:39:07;;;;;;;162.82;6.50;;;;;;;14.67;100.00;98876.38;15258589;19;20687;-43
2023/09/02 01:44:36;;;;;;;320.35;7.90;;;;;;;14.68;100.00;98883.47;15268227;19;20102;-49
2023/09/02 01:50:04;;;;;;;166.00;4.65;;;;;;;14.69;100.00;98887.06;15268669;19;20026;-44
2023/09/02 01:55:30;;;;;;;185.85;4.57;;;;;;;14.67;100.00;98887.22;15268654;19;20415;-45
2023/09/02 02:00:57;;;;;;;168.07;4.00;;;;;;;14.64;100.00;98882.97;15260805;19;20006;-49
2023/09/02 02:06:24;;;;;;;150.85;3.78;;;;;;;14.63;100.00;98881.25;15263152;19;20058;-48
2023/09/02 02:11:51;;;;;;;548.33;9.02;;;;;;;14.63;100.00;98885.84;15261109;19;20110;-45
2023/09/02 02:17:19;;;;;;;693.22;12.50;;;;;;;14.60;100.00;98886.19;15266057;19;20483;-43
2023/09/02 02:22:44;;;;;;;116.70;4.05;;;;;;;14.58;100.00;98886.34;15262503;19;20018;-45
2023/09/02 02:28:08;;;;;;;295.58;6.25;;;;;;;14.58;100.00;98894.50;15265969;19;20026;-46
2023/09/02 02:33:36;;;;;;;141.07;3.72;;;;;;;14.58;100.00;98896.38;15261194;19;20014;-44
2023/09/02 02:39:02;;;;;;;295.95;5.22;;;;;;;14.55;100.00;98907.56;15265721;19;20020;-43
2023/09/02 02:44:28;;;;;;;155.07;3.60;;;;;;;14.48;100.00;98900.16;15258410;19;20023;-46
2023/09/02 02:49:55;;;;;;;150.23;3.25;;;;;;;14.42;100.00;98889.97;15264522;19;20019;-44
2023/09/02 02:55:20;;;;;;;86.70;2.65;;;;;;;14.36;100.00;98890.69;15262994;19;20039;-45
2023/09/02 03:00:54;;;;;;;33.10;2.00;;;;;;;14.29;100.00;98884.25;15263170;19;20086;-46
2023/09/02 03:06:22;;;;;;;218.07;4.65;;;;;;;14.21;100.00;98884.28;15254775;19;20022;-48
2023/09/02 03:11:47;;;;;;;689.83;11.88;;;;;;;14.11;100.00;98888.03;15256755;19;20019;-51
2023/09/02 03:17:14;;;;;;;478.88;10.38;;;;;;;13.94;100.00;98886.38;15263952;19;20014;-48
2023/09/02 03:22:41;;;;;;;639.33;16.17;;;;;;;13.83;100.00;98911.97;15261333;19;20019;-48
2023/09/02 03:28:07;;;;;;;653.60;16.17;;;;;;;13.87;100.00;98924.97;15269266;19;20014;-51
2023/09/02 03:33:31;;;;;;;328.75;9.90;;;;;;;13.89;100.00;98937.50;15270171;19;20433;-48
2023/09/02 03:39:00;;;;;;;66.50;5.47;;;;;;;13.94;100.00;98951.38;15264473;19;20028;-49
2023/09/02 03:44:25;;;;;;;182.43;7.07;;;;;;;13.97;100.00;98965.44;15268051;19;20014;-50
2023/09/02 03:49:52;;;;;;;68.60;5.13;;;;;;;14.01;100.00;98977.63;15260432;19;20404;-46
2023/09/02 03:55:20;;;;;;;284.58;9.60;;;;;;;14.04;100.00;98981.88;15265652;19;20018;-53
2023/09/02 04:00:45;;;;;;;26.85;4.75;;;;;;;14.05;100.00;98978.16;15264696;19;20043;-46
2023/09/02 04:06:10;;;;;;;46.42;4.63;;;;;;;14.08;100.00;98976.97;15256007;19;20408;-53
2023/09/02 04:11:37;;;;;;;39.10;4.10;;;;;;;14.12;100.00;98986.41;15264250;19;20617;-49
2023/09/02 04:17:03;;;;;;;178.35;5.20;;;;;;;14.14;100.00;98989.81;15264377;19;20039;-49
2023/09/02 04:22:30;;;;;;;92.55;4.13;;;;;;;14.16;100.00;98995.91;15258804;19;20011;-48
2023/09/02 04:27:59;;;;;;;79.43;4.00;;;;;;;14.18;100.00;99002.84;15260856;19;20017;-49
2023/09/02 04:33:26;;;;;;;26.38;3.63;;;;;;;14.20;100.00;99001.81;15264469;19;20018;-47
2023/09/02 04:38:52;;;;;;;20.33;4.20;;;;;;;14.20;100.00;99007.25;15258533;19;20010;-49
2023/09/02 04:44:21;;;;;;;4.95;3.22;;;;;;;14.22;100.00;99005.22;15263738;19;20489;-53
2023/09/02 04:49:46;;;;;;;2.78;2.58;;;;;;;14.23;100.00;99023.19;15263051;19;20014;-50
2023/09/02 04:55:11;;;;;;;5.78;3.70;;;;;;;14.22;100.00;99018.78;15259884;19;20467;-47
2023/09/02 05:00:47;;;;;;;8.23;3.80;;;;;;;14.18;100.00;99035.38;15244862;19;20963;-56
2023/09/02 05:06:12;;;;;;;49.03;5.15;;;;;;;14.16;100.00;99036.56;15248822;19;20448;-56
2023/09/02 05:11:39;;;;;;;532.78;14.48;;;;;;;14.13;100.00;99043.16;15252820;19;20035;-58
2023/09/02 05:17:06;;;;;;;296.85;8.60;;;;;;;14.14;100.00;99054.84;15262394;19;20019;-54
2023/09/02 05:22:32;;;;;;;321.98;9.85;;;;;;;14.17;100.00;99055.34;15258016;19;20031;-57
2023/09/02 05:27:58;;;;;;;298.13;9.85;;;;;;;14.22;100.00;99070.25;15253941;19;20347;-57
2023/09/02 05:33:25;;;;;;;451.40;14.07;;;;;;;14.24;100.00;99085.31;15257860;19;20024;-56
2023/09/02 05:38:50;;;;;;;391.83;12.85;;;;;;;14.31;100.00;99088.22;15260011;19;20047;-55
2023/09/02 05:44:15;;;;;;;58.30;9.73;;;;;;;14.37;100.00;99101.09;15252142;19;20019;-55
2023/09/02 05:49:43;;;;;;;118.90;11.00;;;;;;;14.45;100.00;99111.94;15260912;19;20608;-56
2023/09/02 05:55:07;;;;;;;283.42;19.52;;;;;;;14.55;100.00;99121.75;15261344;19;20437;-57
2023/09/02 06:00:39;;;;;;;299.95;14.88;;;;;;;14.62;100.00;99137.19;15253623;19;20098;-58
2023/09/02 06:06:11;;;;;;;445.40;17.63;;;;;;;14.62;100.00;99141.78;15257583;19;20006;-56
2023/09/02 06:11:35;;;;;;;655.42;28.52;;;;;;;14.65;100.00;99146.84;15257762;19;20007;-57
2023/09/02 06:17:00;;;;;;;444.02;15.60;;;;;;;14.64;100.00;99147.88;15249972;19;20015;-57
2023/09/02 06:22:27;;;;;;;501.52;19.83;;;;;;;14.70;100.00;99152.66;15254723;19;20113;-57
2023/09/02 06:27:53;;;;;;;109.82;10.20;;;;;;;14.73;100.00;99146.03;15255184;19;20082;-58
2023/09/02 06:33:17;;;;;;;62.05;8.02;;;;;;;14.76;100.00;99149.25;15247828;19;20086;-58
2023/09/02 06:38:45;;;;;;;8.40;5.88;;;;;;;14.82;100.00;99146.88;15256851;19;20015;-58
2023/09/02 06:44:09;;;;;;;24.20;5.25;;;;;;;14.84;100.00;99164.66;15258022;19;20018;-57
2023/09/02 06:49:34;;;;;;;10.40;5.03;;;;;;;14.90;100.00;99169.44;15251015;19;20018;-58
2023/09/02 06:55:03;;;;;;;29.88;5.38;;;;;;;14.93;100.00;99173.66;15273393;19;20014;-52
2023/09/02 07:00:28;;;;;;;8.48;4.50;;;;;;;14.96;100.00;99181.47;15270399;19;20065;-57
2023/09/02 07:05:52;;;;;;;6.13;5.28;;;;;;;14.98;100.00;99182.16;15262528;19;20019;-53
2023/09/02 07:11:20;;;;;;;31.02;6.43;;;;;;;15.01;100.00;99176.34;15265714;19;20034;-58
2023/09/02 07:16:44;;;;;;;7.40;5.60;;;;;;;15.06;100.00;99184.84;15263457;19;20014;-53
2023/09/02 07:22:09;;;;;;;4.72;4.22;;;;;;;15.14;100.00;99186.69;15258252;19;20101;-57
2023/09/02 07:27:36;;;;;;;6.53;4.43;;;;;;;15.24;100.00;99183.78;15261111;19;20422;-56
2023/09/02 07:33:01;;;;;;;5.45;4.22;;;;;;;15.35;100.00;99199.72;15266487;19;20022;-55
2023/09/02 07:38:25;;;;;;;3.00;2.70;;;;;;;15.37;100.00;99197.66;15266257;19;20504;-57
2023/09/02 07:43:53;;;;;;;4.15;3.75;;;;;;;15.39;100.00;99200.22;15269395;19;20471;-56
2023/09/02 07:49:17;;;;;;;4.35;3.95;;;;;;;15.43;100.00;99206.16;15268754;19;20022;-55
2023/09/02 07:54:43;;;;;;;4.45;3.70;;;;;;;15.46;100.00;99206.66;15261348;19;20018;-52
2023/09/02 08:00:10;;;;;;;3.78;3.47;;;;;;;15.53;100.00;99202.22;15267092;19;20025;-56
2023/09/02 08:05:40;;;;;;;4.25;3.85;;;;;;;15.66;100.00;99207.09;15262118;19;20081;-57
2023/09/02 08:11:11;;;;;;;3.53;3.22;;;;;;;15.68;100.00;99180.63;15265517;19;20018;-55
2023/09/02 08:16:39;;;;;;;3.42;2.85;;;;;;;15.80;100.00;99161.22;15267608;19;20018;-57
2023/09/02 08:22:03;;;;;;;2.33;2.13;;;;;;;15.88;100.00;99139.47;15262111;19;20022;-53
2023/09/02 08:27:28;;;;;;;2.60;2.40;;;;;;;16.02;100.00;99149.56;15255818;19;20006;-56
2023/09/02 08:32:56;;;;;;;1.90;1.80;;;;;;;16.12;100.00;99145.78;15263842;19;20018;-55
2023/09/02 08:38:21;;;;;;;1.95;1.85;;;;;;;16.22;100.00;99124.63;15262566;19;20054;-53
2023/09/02 08:43:45;;;;;;;3.55;3.03;;;;;;;16.24;100.00;99127.16;15265692;19;20098;-54
2023/09/02 08:49:14;;;;;;;2.90;2.70;;;;;;;16.20;100.00;99099.50;15261454;19;20086;-57
2023/09/02 08:54:39;;;;;;;2.60;2.40;;;;;;;16.29;100.00;99103.00;15265363;19;20011;-55
2023/09/02 09:00:05;;;;;;;2.20;2.00;;;;;;;16.21;100.00;99084.06;15251823;19;20025;-57
2023/09/02 09:05:33;;;;;;;2.90;1.90;;;;;;;16.31;100.00;99082.75;15264378;19;20014;-56
2023/09/02 09:10:58;;;;;;;1.77;1.45;;;;;;;16.40;100.00;99083.53;15258046;19;20074;-55
2023/09/02 09:16:31;;;;;;;2.20;2.00;;;;;;;16.56;100.00;99096.16;15263147;19;20010;-55
2023/09/02 09:22:01;;;;;;;1.33;1.23;;;;;;;16.74;100.00;99100.44;15259409;19;20025;-56
2023/09/02 09:27:25;;;;;;;1.52;1.42;;;;;;;16.96;100.00;99073.38;15257388;19;20020;-55
2023/09/02 09:33:00;;;;;;;1.20;1.10;;;;;;;17.05;100.00;99023.25;15248230;19;20014;-59
2023/09/02 09:38:27;;;;;;;0.70;0.70;;;;;;;17.18;100.00;98971.69;15263855;19;20015;-60
2023/09/02 09:44:09;;;;;;;1.13;0.57;;;;;;;17.28;100.00;98960.50;15264482;19;20011;-58
2023/09/02 09:49:36;;;;;;;1.13;0.60;;;;;;;17.43;100.00;98960.44;15263990;19;20019;-55
2023/09/02 09:55:04;;;;;;;0.57;0.57;;;;;;;17.59;100.00;98966.69;15270904;19;20052;-60
2023/09/02 10:00:29;;;;;;;0.40;0.40;;;;;;;17.80;100.00;98966.72;15264443;19;20542;-54
2023/09/02 10:06:01;;;;;;;0.50;0.50;;;;;;;18.01;100.00;98970.47;15267901;19;20050;-56
2023/09/02 10:11:32;;;;;;;0.43;0.40;;;;;;;18.18;100.00;98963.69;15256637;19;21675;-55
2023/09/02 10:16:58;;;;;;;0.40;0.40;;;;;;;18.30;100.00;98957.69;15252677;19;20034;-54
2023/09/02 10:22:23;;;;;;;0.30;0.30;;;;;;;18.37;100.00;98946.84;15256057;19;20015;-58
2023/09/02 10:28:02;;;;;;;0.38;0.38;;;;;;;18.52;100.00;98955.75;15275807;19;20410;-53
2023/09/02 10:33:38;;;;;;;0.30;0.30;;;;;;;18.69;100.00;98939.91;15271152;19;20025;-53
2023/09/02 10:39:05;;;;;;;0.98;0.30;;;;;;;18.86;100.00;98940.41;15284424;19;20083;-53
2023/09/02 10:44:34;;;;;;;0.32;0.30;;;;;;;18.96;100.00;98928.31;15283756;19;20435;-54
2023/09/02 10:49:59;;;;;;;0.20;0.20;;;;;;;19.12;100.00;98938.88;15277097;19;20089;-55
2023/09/02 10:55:25;;;;;;;0.20;0.20;;;;;;;19.27;100.00;98927.78;15278937;19;20022;-54
2023/09/02 11:00:55;;;;;;;0.20;0.20;;;;;;;19.38;100.00;98932.66;15280720;19;20025;-57
2023/09/02 11:06:19;;;;;;;0.30;0.20;;;;;;;19.55;100.00;98921.34;15275293;19;20094;-51
2023/09/02 11:12:12;;;;;;;0.47;0.20;;;;;;;19.66;100.00;98923.47;15276494;19;20014;-55
2023/09/02 11:17:39;;;;;;;0.28;0.28;;;;;;;19.85;100.00;98934.63;15280199;19;20681;-57
2023/09/02 11:23:07;;;;;;;0.30;0.20;;;;;;;19.95;100.00;98920.59;15267814;19;20022;-59
2023/09/02 11:28:35;;;;;;;2.20;0.40;;;;;;;20.06;100.00;98921.81;15276228;19;20019;-55
2023/09/02 11:34:04;;;;;;;0.88;0.30;;;;;;;20.14;100.00;98927.09;15278604;19;20646;-56
2023/09/02 11:39:33;;;;;;;1.10;0.32;;;;;;;20.21;100.00;98933.41;15268659;19;20475;-56
2023/09/02 11:45:01;;;;;;;0.45;0.30;;;;;;;20.35;100.00;98923.28;15275918;19;20010;-53
2023/09/02 11:50:31;;;;;;;0.20;0.20;;;;;;;20.59;100.00;98924.50;15277601;19;20022;-56
2023/09/02 11:55:56;;;;;;;0.20;0.20;;;;;;;20.72;100.00;98922.78;15274228;19;20078;-51
2023/09/02 12:01:27;;;;;;;0.20;0.20;;;;;;;20.87;100.00;98923.41;15276033;19;20018;-55
2023/09/02 12:06:55;;;;;;;0.20;0.20;;;;;;;;;;15279384;19;20021;-56
2023/09/02 12:12:19;;;;;;;0.20;0.20;;;;;;;21.20;100.00;98908.72;15270610;19;20013;-52
2023/09/02 12:17:45;;;;;;;0.32;0.28;;;;;;;21.27;100.00;98910.56;15278739;19;20023;-53
2023/09/02 12:23:15;;;;;;;0.20;0.20;;;;;;;21.37;100.00;98898.09;15275206;19;20086;-56
2023/09/02 12:28:49;;;;;;;1.70;0.25;;;;;;;21.54;100.00;98884.69;15269276;19;20346;-58
2023/09/02 12:34:32;;;;;;;0.20;0.20;;;;;;;21.66;100.00;98881.28;15275854;19;20021;-57
2023/09/02 12:40:11;;;;;;;0.55;0.20;;;;;;;21.79;100.00;98874.81;15275983;19;20029;-57
2023/09/02 12:45:40;;;;;;;0.20;0.20;;;;;;;22.04;100.00;98869.34;15268060;19;20074;-56
2023/09/02 12:51:05;;;;;;;0.65;0.30;;;;;;;21.88;100.00;98868.00;15269513;19;20022;-57
2023/09/02 12:56:33;;;;;;;0.20;0.20;;;;;;;22.07;100.00;98876.28;15270947;19;20086;-53
2023/09/02 13:02:04;;;;;;;2.15;0.28;;;;;;;22.17;100.00;98882.91;15268261;19;20788;-53
2023/09/02 13:07:30;;;;;;;0.40;0.30;;;;;;;22.27;100.00;98887.91;15274092;19;20021;-53
2023/09/02 13:12:57;;;;;;;0.52;0.20;;;;;;;22.44;100.00;98873.63;15271571;19;20018;-60
2023/09/02 13:18:22;;;;;;;0.50;0.30;;;;;;;22.49;100.00;98884.75;15266939;19;20335;-56
2023/09/02 13:23:48;;;;;;;0.35;0.25;;;;;;;22.56;100.00;98876.44;15272399;19;20025;-58
2023/09/02 13:29:18;;;;;;;0.10;0.10;;;;;;;22.24;100.00;98876.53;15265024;19;20022;-59
2023/09/02 13:34:44;;;;;;;0.17;0.17;;;;;;;22.43;100.00;98872.78;15271104;19;20007;-58
2023/09/02 13:40:37;;;;;;;0.30;0.30;;;;;;;22.32;100.00;98873.50;15271396;19;20063;-58
2023/09/02 13:46:05;;;;;;;0.38;0.30;;;;;;;22.46;100.00;98875.06;15271812;19;20018;-54
2023/09/02 13:51:31;;;;;;;0.20;0.20;;;;;;;22.56;100.00;98882.78;15263926;19;20014;-57
2023/09/02 13:56:57;;;;;;;0.30;0.30;;;;;;;22.66;100.00;98884.97;15270211;19;20011;-60
2023/09/02 14:02:32;;;;;;;0.20;0.20;;;;;;;22.70;100.00;98879.84;15259784;19;20044;-58
2023/09/02 14:08:02;;;;;;;0.20;0.20;;;;;;;22.55;100.00;98886.59;15270794;19;20011;-59
2023/09/02 14:13:27;;;;;;;0.20;0.20;;;;;;;22.47;100.00;98886.88;15265265;19;20031;-59
2023/09/02 14:18:55;;;;;;;0.20;0.20;;;;;;;22.53;100.00;98890.63;15262893;19;20137;-55
2023/09/02 14:24:20;;;;;;;0.20;0.20;;;;;;;22.65;100.00;98897.03;15269347;19;20018;-59
2023/09/02 14:29:45;;;;;;;0.60;0.28;;;;;;;22.78;100.00;98885.88;15266619;19;20031;-58
2023/09/02 14:35:13;;;;;;;0.20;0.20;;;;;;;23.04;100.00;98886.63;15263095;19;20010;-62
2023/09/02 14:40:38;;;;;;;1.10;0.22;;;;;;;23.00;100.00;98890.91;15267371;19;20491;-57
2023/09/02 14:46:03;;;;;;;0.20;0.20;;;;;;;23.01;100.00;98889.84;15266879;19;20035;-57
2023/09/02 14:51:34;;;;;;;0.20;0.20;;;;;;;23.17;100.00;98898.53;15258192;19;20014;-59
2023/09/02 14:57:01;;;;;;;0.20;0.20;;;;;;;23.13;100.00;98905.53;15266932;19;20019;-53
2023/09/02 15:02:39;;;;;;;1.40;0.20;;;;;;;23.03;100.00;98900.63;15264304;19;20039;-55
2023/09/02 15:08:11;;;;;;;0.17;0.10;;;;;;;22.98;100.00;98904.06;15260657;19;20013;-55
2023/09/02 15:13:39;;;;;;;0.20;0.20;;;;;;;22.96;100.00;98911.69;15278040;19;20098;-53
2023/09/02 15:19:03;;;;;;;0.20;0.20;;;;;;;22.97;100.00;98910.63;15280889;19;20016;-54
2023/09/02 15:24:35;;;;;;;0.20;0.20;;;;;;;22.81;100.00;98909.34;15274899;19;20018;-58
2023/09/02 15:30:00;;;;;;;0.30;0.20;;;;;;;22.90;100.00;98910.69;15276722;19;20024;-58
2023/09/02 15:35:25;;;;;;;0.38;0.20;;;;;;;22.73;100.00;98913.22;15281085;19;20029;-55
2023/09/02 15:40:53;;;;;;;0.25;0.25;;;;;;;22.78;100.00;98912.53;15272323;19;20476;-56
2023/09/02 15:46:19;;;;;;;0.20;0.20;;;;;;;22.73;100.00;98928.84;15281421;19;20019;-52
2023/09/02 15:51:44;;;;;;;0.30;0.30;;;;;;;22.72;100.00;98921.69;15281051;19;20015;-56
2023/09/02 15:57:11;;;;;;;1.50;0.30;;;;;;;22.71;100.00;98918.09;15274918;19;20014;-53
2023/09/02 16:02:36;;;;;;;0.30;0.30;;;;;;;22.63;100.00;98919.25;15271426;19;20712;-54
2023/09/02 16:08:02;;;;;;;0.57;0.30;;;;;;;22.51;100.00;98926.56;15277885;19;20478;-54
2023/09/02 16:13:29;;;;;;;0.20;0.20;;;;;;;22.42;100.00;98926.00;15264952;19;20049;-55
2023/09/02 16:18:53;;;;;;;0.30;0.30;;;;;;;22.37;100.00;98931.31;15278452;19;20941;-56
2023/09/02 16:24:17;;;;;;;0.30;0.30;;;;;;;22.30;100.00;98923.13;15274949;19;20031;-54
2023/09/02 16:29:45;;;;;;;1.75;0.30;;;;;;;22.26;100.00;98923.81;15268148;19;20467;-57
2023/09/02 16:35:11;;;;;;;0.20;0.20;;;;;;;22.24;100.00;98923.19;15273741;19;20010;-56
2023/09/02 16:40:36;;;;;;;1.05;0.22;;;;;;;22.17;100.00;98915.03;15275605;19;20046;-54
2023/09/02 16:46:04;;;;;;;0.25;0.25;;;;;;;22.09;100.00;98913.41;15269772;19;20090;-55
2023/09/02 16:51:28;;;;;;;0.20;0.20;;;;;;;21.97;100.00;98916.03;15272223;19;20029;-56
2023/09/02 16:56:53;;;;;;;0.60;0.25;;;;;;;21.91;100.00;98916.94;15275002;19;20033;-55
2023/09/02 17:02:24;;;;;;;0.20;0.20;;;;;;;21.85;100.00;98920.56;15266372;19;20340;-55
2023/09/02 17:07:50;;;;;;;0.20;0.20;;;;;;;21.79;100.00;98916.81;15273184;19;20029;-55
2023/09/02 17:13:14;;;;;;;0.38;0.20;;;;;;;21.72;100.00;98917.94;15271167;19;20035;-55
2023/09/02 17:18:42;;;;;;;0.30;0.30;;;;;;;21.65;100.00;98926.19;15269861;19;20356;-56
2023/09/02 17:24:07;;;;;;;0.38;0.38;;;;;;;21.55;100.00;98922.00;15274217;19;20034;-55
2023/09/02 17:29:32;;;;;;;0.45;0.40;;;;;;;21.43;100.00;98920.19;15271336;19;20549;-53
2023/09/02 17:34:59;;;;;;;0.98;0.35;;;;;;;21.25;100.00;98908.88;15266281;19;20628;-57
2023/09/02 17:40:24;;;;;;;0.65;0.28;;;;;;;21.15;100.00;98919.50;15271710;19;20019;-58
2023/09/02 17:45:48;;;;;;;1.20;0.30;;;;;;;20.96;100.00;98920.44;15273024;19;20010;-57
2023/09/02 17:51:16;;;;;;;0.68;0.28;;;;;;;20.77;100.00;98939.44;15261467;19;20046;-59
2023/09/02 17:56:40;;;;;;;0.47;0.20;;;;;;;20.53;100.00;98941.78;15272093;19;20070;-58
2023/09/02 18:02:12;;;;;;;0.73;0.20;;;;;;;20.35;100.00;98944.34;15266445;19;20006;-57
2023/09/02 18:07:39;;;;;;;0.30;0.30;;;;;;;20.16;100.00;98966.03;15261690;19;20010;-57
2023/09/02 18:13:06;;;;;;;0.82;0.30;;;;;;;20.02;100.00;98959.69;15267451;19;20862;-58
2023/09/02 18:18:31;;;;;;;0.20;0.20;;;;;;;19.87;100.00;98973.59;15269430;19;20030;-58
2023/09/02 18:23:58;;;;;;;0.45;0.25;;;;;;;19.76;100.00;98979.63;15262841;19;20590;-56
2023/09/02 18:29:22;;;;;;;0.30;0.30;;;;;;;19.68;100.00;98988.84;15267565;19;20433;-58
2023/09/02 18:34:48;;;;;;;0.40;0.28;;;;;;;19.59;100.00;98996.41;15268663;19;20081;-55
2023/09/02 18:40:16;;;;;;;0.57;0.50;;;;;;;19.49;100.00;99009.63;15260992;19;20025;-57
2023/09/02 18:45:41;;;;;;;1.95;0.50;;;;;;;19.37;100.00;99026.59;15271006;19;20010;-55
2023/09/02 18:51:05;;;;;;;0.70;0.70;;;;;;;19.31;100.00;99024.69;15278146;19;20036;-56
2023/09/02 18:56:36;;;;;;;0.60;0.60;;;;;;;19.23;100.00;99027.59;15281510;19;20019;-56
2023/09/02 19:02:00;;;;;;;1.85;0.60;;;;;;;19.17;100.00;99031.97;15278606;19;20022;-57
2023/09/02 19:07:25;;;;;;;0.57;0.40;;;;;;;19.09;100.00;99045.78;15282517;19;20467;-56
2023/09/02 19:12:59;;;;;;;0.40;0.40;;;;;;;19.04;100.00;99046.41;15269392;19;20022;-57
2023/09/02 19:18:23;;;;;;;0.43;0.40;;;;;;;18.97;100.00;99055.59;15284289;19;20018;-58
2023/09/02 19:23:48;;;;;;;0.60;0.60;;;;;;;18.89;100.00;99051.97;15276348;19;20007;-58
2023/09/02 19:29:15;;;;;;;0.73;0.57;;;;;;;18.84;100.00;99062.63;15282417;19;20490;-58
2023/09/02 19:34:40;;;;;;;0.93;0.50;;;;;;;18.77;100.00;99062.56;15286428;19;20014;-58
2023/09/02 19:40:06;;;;;;;1.10;0.70;;;;;;;18.74;100.00;99060.25;15280880;19;20020;-53
2023/09/02 19:45:34;;;;;;;0.75;0.75;;;;;;;18.70;100.00;99067.16;15271805;19;20014;-55
2023/09/02 19:50:58;;;;;;;0.90;0.70;;;;;;;18.63;100.00;99078.00;15276128;19;20430;-52
2023/09/02 19:56:23;;;;;;;0.52;0.52;;;;;;;18.56;100.00;99088.03;15251658;19;20014;-56
2023/09/02 20:01:50;;;;;;;0.70;0.43;;;;;;;18.53;100.00;99087.56;15273385;19;20035;-57
2023/09/02 20:07:15;;;;;;;2.63;0.70;;;;;;;18.46;100.00;99091.09;15277313;19;20078;-53
2023/09/02 20:12:40;;;;;;;1.05;0.60;;;;;;;18.46;100.00;99091.09;15262747;19;20487;-51
2023/09/02 20:18:08;;;;;;;1.75;0.73;;;;;;;18.46;100.00;99085.63;15264460;19;20010;-48
2023/09/02 20:23:32;;;;;;;0.50;0.50;;;;;;;18.47;100.00;99091.94;15268191;19;20033;-51
2023/09/02 20:28:57;;;;;;;1.40;0.50;;;;;;;18.43;100.00;99088.75;15267895;19;20027;-48
2023/09/02 20:34:24;;;;;;;0.70;0.70;;;;;;;18.42;100.00;99092.53;15272504;19;20006;-50
2023/09/02 20:39:49;;;;;;;1.58;1.20;;;;;;;18.39;100.00;99083.88;15273884;19;20024;-51
2023/09/02 20:45:14;;;;;;;0.60;0.60;;;;;;;18.33;100.00;99078.19;15273554;19;20039;-49
2023/09/02 20:50:45;;;;;;;0.77;0.68;;;;;;;18.29;100.00;99070.56;15265491;19;20292;-50
2023/09/02 20:56:12;;;;;;;1.52;0.60;;;;;;;18.22;100.00;99076.00;15268420;19;20002;-50
2023/09/02 21:01:37;;;;;;;0.70;0.50;;;;;;;18.18;100.00;99067.31;15263034;19;20017;-48
2023/09/02 21:07:04;;;;;;;1.00;0.70;;;;;;;18.12;100.00;99075.44;15272286;19;20476;-45
2023/09/02 21:12:29;;;;;;;2.05;0.63;;;;;;;18.05;100.00;99075.38;15267691;19;20078;-47
2023/09/02 21:17:54;;;;;;;1.15;0.98;;;;;;;17.99;100.00;99084.34;15267930;19;20090;-53
2023/09/02 21:23:22;;;;;;;1.27;1.17;;;;;;;17.91;100.00;99095.34;15267865;19;20110;-51
2023/09/02 21:28:49;;;;;;;2.10;1.40;;;;;;;17.84;100.00;99098.81;15272768;19;20082;-47
2023/09/02 21:34:14;;;;;;;3.08;2.00;;;;;;;17.81;100.00;99109.25;15264087;19;20082;-51
2023/09/02 21:39:42;;;;;;;2.90;1.83;;;;;;;17.74;100.00;99101.00;15270878;19;20029;-49
2023/09/02 21:45:06;;;;;;;1.80;1.60;;;;;;;17.69;100.00;99106.19;15267907;19;20025;-50
2023/09/02 21:50:30;;;;;;;2.58;1.65;;;;;;;17.62;100.00;99108.84;15260211;19;20002;-49
2023/09/02 21:55:59;;;;;;;2.90;1.80;;;;;;;17.57;100.00;99119.44;15268927;19;20025;-50
2023/09/02 22:01:25;;;;;;;2.70;1.70;;;;;;;17.51;100.00;99118.34;15265200;19;20025;-48
2023/09/02 22:06:49;;;;;;;2.03;1.52;;;;;;;17.46;100.00;99120.78;15264813;19;20016;-48
2023/09/02 22:12:17;;;;;;;1.38;1.27;;;;;;;17.42;100.00;99138.53;15262890;19;20018;-48
2023/09/02 22:17:41;;;;;;;1.35;1.25;;;;;;;17.38;100.00;99143.53;15267228;19;20021;-47
2023/09/02 22:23:06;;;;;;;1.13;0.85;;;;;;;17.36;100.00;99153.75;15265567;19;20086;-51
2023/09/02 22:28:34;;;;;;;1.75;1.00;;;;;;;17.37;100.00;99151.88;15279450;19;20034;-47
2023/09/02 22:33:59;;;;;;;1.90;1.00;;;;;;;17.37;100.00;99160.91;15284005;19;20341;-47
2023/09/02 22:39:23;;;;;;;1.60;0.90;;;;;;;17.37;100.00;99160.03;15275181;19;20016;-50
2023/09/02 22:44:51;;;;;;;1.00;0.90;;;;;;;17.35;100.00;99162.97;15283711;19;20018;-49
2023/09/02 22:50:17;;;;;;;2.10;1.00;;;;;;;17.31;100.00;99156.19;15278647;19;20025;-51
2023/09/02 22:55:42;;;;;;;1.50;1.00;;;;;;;17.26;100.00;99155.91;15274150;19;20021;-46
2023/09/02 23:01:13;;;;;;;1.13;0.90;;;;;;;17.17;100.00;99154.31;15277648;19;20418;-47
2023/09/02 23:06:38;;;;;;;1.95;1.10;;;;;;;17.06;100.00;99161.88;15280497;19;20812;-47
2023/09/02 23:12:02;;;;;;;1.10;1.00;;;;;;;16.98;100.00;99161.13;15272734;19;20022;-51
2023/09/02 23:17:29;;;;;;;1.70;0.95;;;;;;;16.93;100.00;99169.81;15281016;19;20420;-47
2023/09/02 23:22:56;;;;;;;1.58;1.10;;;;;;;16.89;100.00;99182.09;15270358;19;20017;-53
2023/09/02 23:28:22;;;;;;;4.18;1.40;;;;;;;16.86;100.00;99185.19;15273456;19;20010;-50
2023/09/02 23:33:50;;;;;;;1.52;1.20;;;;;;;16.80;100.00;99192.19;15272722;19;20025;-52
2023/09/02 23:39:15;;;;;;;1.45;1.30;;;;;;;16.75;100.00;99194.66;15279217;19;20022;-46
2023/09/02 23:44:40;;;;;;;2.53;1.58;;;;;;;16.69;100.00;99195.34;15273738;19;20027;-49
2023/09/02 23:50:08;;;;;;;4.47;1.90;;;;;;;16.64;100.00;99199.44;15277075;19;20355;-50
2023/09/02 23:55:33;;;;;;;1.90;1.70;;;;;;;16.58;100.00;99205.63;15279055;19;20523;-52
